Time;durP1;ratioP1;P1;durP2;ratioP2;P2;SDS_P1;SDS_P2;PMS_P1;PMS_P2;Temp;Humidity;BMP_temperature;BMP_pressure;BME280_temperature;BME280_humidity;BME280_pressure;Samples;Min_cycle;Max_cycle;Signal;HPM_P1;HPM_P2
2021/08/27 00:01:31;;;;;;;27.05;21.20;;;16.60;99.00;;;;;;5013187;28;20411;-80
2021/08/27 00:03:57;;;;;;;31.65;22.08;;;16.60;99.30;;;;;;5011650;28;20072;-81
2021/08/27 00:06:23;;;;;;;26.00;21.80;;;16.70;99.40;;;;;;5017791;28;20017;-81
2021/08/27 00:08:49;;;;;;;26.77;19.98;;;16.60;99.50;;;;;;5011942;28;20061;-82
2021/08/27 00:11:15;;;;;;;28.35;20.30;;;16.70;99.60;;;;;;5012325;28;20018;-81
2021/08/27 00:13:41;;;;;;;27.88;22.13;;;16.60;99.70;;;;;;5012633;28;20076;-81
2021/08/27 00:16:07;;;;;;;21.90;18.38;;;16.70;99.90;;;;;;5012611;28;20030;-82
2021/08/27 00:18:33;;;;;;;25.95;19.58;;;16.70;99.80;;;;;;5008514;28;20025;-81
2021/08/27 00:20:59;;;;;;;25.80;21.08;;;16.70;99.90;;;;;;5003191;28;20125;-81
2021/08/27 00:23:25;;;;;;;25.98;20.48;;;16.70;99.90;;;;;;5012588;28;20498;-81
2021/08/27 00:25:51;;;;;;;27.67;20.35;;;16.70;99.90;;;;;;5012613;28;20120;-81
2021/08/27 00:28:17;;;;;;;25.25;20.65;;;16.70;99.90;;;;;;5012364;28;20018;-81
2021/08/27 00:30:43;;;;;;;27.65;18.63;;;16.80;99.90;;;;;;5011746;28;20018;-82
2021/08/27 00:33:08;;;;;;;25.60;21.13;;;16.80;99.90;;;;;;5012359;28;20489;-82
2021/08/27 00:35:34;;;;;;;23.98;21.15;;;16.80;99.90;;;;;;5011981;28;20096;-83
2021/08/27 00:38:00;;;;;;;25.33;21.00;;;16.80;99.80;;;;;;5011006;28;20034;-82
2021/08/27 00:40:26;;;;;;;24.58;20.05;;;16.80;99.50;;;;;;5011995;28;20040;-83
2021/08/27 00:42:52;;;;;;;23.52;20.65;;;16.80;99.40;;;;;;5016360;28;20120;-82
2021/08/27 00:45:18;;;;;;;21.92;19.00;;;16.80;99.40;;;;;;5016394;28;20109;-82
2021/08/27 00:47:43;;;;;;;25.30;20.33;;;16.80;99.40;;;;;;5015800;28;20114;-82
2021/08/27 00:50:10;;;;;;;21.20;18.25;;;16.80;99.30;;;;;;5016312;28;20304;-82
2021/08/27 00:52:37;;;;;;;27.58;20.55;;;16.90;99.30;;;;;;5016104;28;20191;-83
2021/08/27 00:55:04;;;;;;;22.88;18.38;;;16.90;99.10;;;;;;5016150;28;20022;-82
2021/08/27 00:57:30;;;;;;;23.65;20.35;;;16.80;98.80;;;;;;5016002;28;20101;-83
2021/08/27 00:59:58;;;;;;;25.25;19.33;;;16.80;99.00;;;;;;5016167;28;20122;-82
2021/08/27 01:02:25;;;;;;;26.13;20.05;;;16.80;99.00;;;;;;5016084;28;20501;-83
2021/08/27 01:04:52;;;;;;;23.40;19.58;;;16.80;99.00;;;;;;5016093;28;20499;-83
2021/08/27 01:07:27;;;;;;;21.83;19.42;;;16.80;99.00;;;;;;5014983;28;20021;-83
2021/08/27 01:10:04;;;;;;;21.60;19.33;;;16.80;99.20;;;;;;5015766;28;20064;-84
2021/08/27 01:12:42;;;;;;;21.85;19.02;;;16.80;99.30;;;;;;5015726;28;20026;-83
2021/08/27 01:15:14;;;;;;;;;;;16.80;99.20;;;;;;5010125;28;20487;-83
2021/08/27 01:18:24;;;;;;;24.77;21.02;;;16.80;99.00;;;;;;5019842;28;19997;-84
2021/08/27 01:21:24;;;;;;;22.58;20.10;;;16.80;99.10;;;;;;5006284;28;20034;-84
2021/08/27 01:23:54;;;;;;;24.05;20.20;;;16.70;99.30;;;;;;5004972;28;20026;-83
2021/08/27 01:26:24;;;;;;;24.08;21.00;;;16.60;99.60;;;;;;5015546;28;20080;-85
2021/08/27 01:28:51;;;;;;;21.83;19.48;;;16.50;99.90;;;;;;5015651;28;20387;-83
2021/08/27 01:31:23;;;;;;;25.70;19.85;;;16.50;99.90;;;;;;5015747;28;20060;-83
2021/08/27 01:34:15;;;;;;;22.35;19.27;;;16.40;99.90;;;;;;5015684;28;20037;-82
2021/08/27 01:36:42;;;;;;;28.13;19.60;;;16.40;99.90;;;;;;5015294;28;20026;-83
2021/08/27 01:39:11;;;;;;;28.45;21.70;;;16.30;99.90;;;;;;5015663;28;20456;-83
2021/08/27 01:41:40;;;;;;;26.35;19.58;;;16.30;99.90;;;;;;5014408;28;20148;-83
2021/08/27 01:44:07;;;;;;;23.75;19.23;;;16.30;99.90;;;;;;5006589;28;20026;-83
2021/08/27 01:46:36;;;;;;;30.83;20.55;;;16.20;99.90;;;;;;5015806;28;20022;-84
2021/08/27 01:49:04;;;;;;;26.38;20.75;;;16.20;99.90;;;;;;5013849;28;20495;-84
2021/08/27 01:51:31;;;;;;;28.42;20.00;;;16.30;99.90;;;;;;5015173;28;20026;-83
2021/08/27 01:53:58;;;;;;;22.58;19.40;;;16.30;99.90;;;;;;5014145;28;20026;-82
2021/08/27 01:56:24;;;;;;;23.33;20.90;;;16.30;99.90;;;;;;5015495;28;20105;-82
2021/08/27 01:58:56;;;;;;;23.50;20.55;;;16.30;99.90;;;;;;5013646;28;20025;-81
2021/08/27 02:01:24;;;;;;;28.35;20.73;;;16.30;99.90;;;;;;5013484;28;20076;-83
2021/08/27 02:03:53;;;;;;;24.73;20.42;;;16.30;99.90;;;;;;5014708;28;20017;-84
2021/08/27 02:06:19;;;;;;;27.38;20.42;;;16.30;99.90;;;;;;5015151;28;20032;-81
2021/08/27 02:08:46;;;;;;;23.23;20.42;;;16.30;99.90;;;;;;5015557;28;20022;-81
2021/08/27 02:11:13;;;;;;;22.08;19.67;;;16.30;99.90;;;;;;5014654;28;20022;-84
2021/08/27 02:13:39;;;;;;;26.38;20.90;;;16.30;99.90;;;;;;5014949;28;20101;-82
2021/08/27 02:16:06;;;;;;;23.42;20.60;;;16.30;99.90;;;;;;5014739;28;20045;-84
2021/08/27 02:18:33;;;;;;;27.07;21.43;;;16.30;99.90;;;;;;5000997;28;20391;-84
2021/08/27 02:21:02;;;;;;;28.88;22.00;;;16.20;99.90;;;;;;5014853;28;20038;-83
2021/08/27 02:23:28;;;;;;;24.05;20.75;;;16.20;99.90;;;;;;5014741;28;20041;-82
2021/08/27 02:25:56;;;;;;;27.63;22.38;;;16.30;99.90;;;;;;5014998;28;20029;-83
2021/08/27 02:28:24;;;;;;;27.85;22.42;;;16.30;99.90;;;;;;5013382;28;20014;-84
2021/08/27 02:30:50;;;;;;;24.98;22.13;;;16.30;99.90;;;;;;5013751;28;20034;-83
2021/08/27 02:33:17;;;;;;;28.92;21.00;;;16.40;99.90;;;;;;5013930;28;20022;-83
2021/08/27 02:35:44;;;;;;;23.67;21.17;;;16.40;99.90;;;;;;5028182;28;20013;-83
2021/08/27 02:38:16;;;;;;;27.05;23.40;;;16.40;99.90;;;;;;5026388;28;20034;-83
2021/08/27 02:40:42;;;;;;;31.60;22.33;;;16.50;99.90;;;;;;5015644;28;20435;-82
2021/08/27 02:43:07;;;;;;;26.50;21.73;;;16.60;99.90;;;;;;5014550;28;20054;-81
2021/08/27 02:45:33;;;;;;;26.30;22.58;;;16.50;99.90;;;;;;5012694;28;20041;-83
2021/08/27 02:47:59;;;;;;;28.52;22.38;;;16.50;99.90;;;;;;5014596;28;20033;-83
2021/08/27 02:50:27;;;;;;;26.83;22.83;;;16.40;99.90;;;;;;5012739;28;20026;-82
2021/08/27 02:53:03;;;;;;;26.05;21.48;;;16.40;99.90;;;;;;5014344;28;20033;-83
2021/08/27 02:55:36;;;;;;;31.00;23.27;;;16.40;99.90;;;;;;5014000;28;20383;-83
2021/08/27 02:58:16;;;;;;;33.33;22.13;;;16.40;99.90;;;;;;5014203;28;20113;-84
2021/08/27 03:01:05;;;;;;;26.65;22.05;;;16.40;99.90;;;;;;5012806;28;20042;-84
2021/08/27 03:03:37;;;;;;;32.17;22.88;;;16.40;99.90;;;;;;5014801;28;20026;-84
2021/08/27 03:06:10;;;;;;;28.77;21.20;;;16.40;99.90;;;;;;5013959;28;20385;-83
2021/08/27 03:08:43;;;;;;;30.48;21.38;;;16.40;99.90;;;;;;5014037;28;20038;-84
2021/08/27 03:11:22;;;;;;;26.60;22.58;;;16.50;99.90;;;;;;5013756;28;20018;-84
2021/08/27 03:14:08;;;;;;;25.17;22.25;;;16.50;99.90;;;;;;5013886;28;20033;-83
2021/08/27 03:16:38;;;;;;;31.20;20.45;;;16.50;99.90;;;;;;5013523;28;20022;-83
2021/08/27 03:19:10;;;;;;;28.52;22.27;;;16.50;99.90;;;;;;5013827;28;20424;-83
2021/08/27 03:21:42;;;;;;;29.30;21.10;;;16.60;99.90;;;;;;5013427;28;20040;-82
2021/08/27 03:24:22;;;;;;;33.20;22.38;;;16.60;99.90;;;;;;5013574;28;20029;-83
2021/08/27 03:26:55;;;;;;;37.15;23.48;;;16.70;99.80;;;;;;5012321;28;20026;-84
2021/08/27 03:29:22;;;;;;;33.80;22.13;;;16.80;99.70;;;;;;5013445;28;20021;-83
2021/08/27 03:31:49;;;;;;;29.10;23.27;;;16.80;99.50;;;;;;5013299;28;20101;-83
2021/08/27 03:34:17;;;;;;;37.90;21.98;;;16.80;99.40;;;;;;5013506;28;20030;-83
2021/08/27 03:36:43;;;;;;;;;;;16.80;99.10;;;;;;5013674;28;20033;-84
2021/08/27 03:39:09;;;;;;;31.83;24.90;;;16.90;99.00;;;;;;5013557;28;20304;-84
2021/08/27 03:41:39;;;;;;;26.73;22.20;;;16.80;99.00;;;;;;5012998;28;20037;-83
2021/08/27 03:44:06;;;;;;;31.42;21.65;;;16.90;99.10;;;;;;5012289;28;20033;-84
2021/08/27 03:46:32;;;;;;;27.48;21.73;;;16.90;98.80;;;;;;5013397;28;20128;-84
2021/08/27 03:48:58;;;;;;;28.50;22.35;;;16.90;98.70;;;;;;5014517;28;20022;-84
2021/08/27 03:51:27;;;;;;;29.73;22.88;;;16.90;98.60;;;;;;5015203;28;20061;-84
2021/08/27 03:53:53;;;;;;;27.77;21.10;;;16.90;98.90;;;;;;5013666;28;20084;-84
2021/08/27 03:56:19;;;;;;;33.13;23.45;;;16.90;98.50;;;;;;5013380;28;20025;-85
2021/08/27 03:58:47;;;;;;;23.50;20.95;;;17.00;98.60;;;;;;5013167;28;20357;-87
2021/08/27 04:01:13;;;;;;;33.20;23.75;;;17.00;98.40;;;;;;5011715;28;20038;-83
2021/08/27 04:03:40;;;;;;;31.60;22.27;;;17.10;98.30;;;;;;5012847;28;20037;-83
2021/08/27 04:06:07;;;;;;;;;;;17.10;97.80;;;;;;5013013;28;20018;-82
2021/08/27 04:08:38;;;;;;;34.88;22.95;;;17.20;97.80;;;;;;5013223;28;20370;-83
2021/08/27 04:11:04;;;;;;;32.45;23.98;;;17.20;97.70;;;;;;5013413;28;20030;-82
2021/08/27 04:13:30;;;;;;;34.03;23.98;;;17.20;97.50;;;;;;5012846;28;20450;-84
2021/08/27 04:15:56;;;;;;;32.55;24.33;;;17.30;97.40;;;;;;5012252;28;20026;-83
2021/08/27 04:18:22;;;;;;;31.88;23.83;;;17.40;97.40;;;;;;5012393;28;20041;-83
2021/08/27 04:20:48;;;;;;;32.28;24.48;;;17.40;97.20;;;;;;5013317;28;20045;-83
2021/08/27 04:23:14;;;;;;;30.58;24.25;;;17.60;96.70;;;;;;5012619;28;20459;-83
2021/08/27 04:25:40;;;;;;;33.28;23.83;;;17.60;96.60;;;;;;5012598;28;20022;-84
2021/08/27 04:28:05;;;;;;;32.70;24.63;;;17.70;96.50;;;;;;5011998;28;20117;-86
2021/08/27 04:30:33;;;;;;;33.70;24.83;;;17.70;96.20;;;;;;5012897;28;20030;-83
2021/08/27 04:32:59;;;;;;;33.58;25.88;;;17.70;96.10;;;;;;5012613;28;20379;-84
2021/08/27 04:35:24;;;;;;;32.42;25.15;;;17.70;95.80;;;;;;5012479;28;20032;-83
2021/08/27 04:37:50;;;;;;;35.50;26.50;;;17.70;95.80;;;;;;5013855;28;20030;-84
2021/08/27 04:40:16;;;;;;;33.03;26.85;;;17.80;95.50;;;;;;5012682;28;20491;-83
2021/08/27 04:42:42;;;;;;;36.63;27.65;;;17.80;95.50;;;;;;5012273;28;20041;-85
2021/08/27 04:45:09;;;;;;;36.40;28.73;;;17.80;95.20;;;;;;5012389;28;20160;-84
2021/08/27 04:47:34;;;;;;;33.83;27.38;;;17.80;94.90;;;;;;5012534;28;20018;-84
2021/08/27 04:50:00;;;;;;;37.05;28.95;;;17.80;94.80;;;;;;5012631;28;20032;-84
2021/08/27 04:52:26;;;;;;;39.03;29.92;;;17.90;94.70;;;;;;5012027;28;20026;-84
2021/08/27 04:54:52;;;;;;;38.88;30.80;;;17.90;94.40;;;;;;5010868;28;20125;-83
2021/08/27 04:57:18;;;;;;;38.67;31.00;;;18.00;94.40;;;;;;5012317;28;20026;-84
2021/08/27 04:59:46;;;;;;;39.63;30.88;;;18.10;94.30;;;;;;5012277;28;20526;-83
2021/08/27 05:02:12;;;;;;;35.95;30.73;;;18.20;93.90;;;;;;5012202;28;20077;-85
2021/08/27 05:04:38;;;;;;;43.15;31.90;;;18.20;93.30;;;;;;5011617;28;20104;-82
2021/08/27 05:07:05;;;;;;;40.88;31.42;;;18.30;93.10;;;;;;5012384;28;20085;-83
2021/08/27 05:09:31;;;;;;;43.05;32.47;;;18.40;93.00;;;;;;5012248;28;20049;-84
2021/08/27 05:11:57;;;;;;;40.38;30.50;;;18.50;92.60;;;;;;5012131;28;20030;-84
2021/08/27 05:14:23;;;;;;;40.38;32.42;;;18.60;92.40;;;;;;5010949;28;20106;-83
2021/08/27 05:16:49;;;;;;;38.17;31.92;;;18.70;92.00;;;;;;5012049;28;20533;-85
2021/08/27 05:19:15;;;;;;;38.50;31.27;;;19.00;91.50;;;;;;5014227;28;20033;-82
2021/08/27 05:21:41;;;;;;;42.85;33.58;;;19.50;90.50;;;;;;5012677;28;20036;-83
2021/08/27 05:24:07;;;;;;;37.08;32.80;;;20.30;88.20;;;;;;5013929;28;20022;-83
2021/08/27 05:26:34;;;;;;;40.95;33.25;;;21.20;85.30;;;;;;5018822;28;20460;-81
2021/08/27 05:29:00;;;;;;;43.42;34.40;;;21.80;80.80;;;;;;5024007;28;20029;-83
2021/08/27 05:31:26;;;;;;;40.63;35.20;;;21.90;79.10;;;;;;5023472;28;20025;-83
2021/08/27 05:33:52;;;;;;;45.85;35.70;;;21.70;77.70;;;;;;5016146;28;20033;-83
2021/08/27 05:36:18;;;;;;;45.22;36.97;;;21.80;78.90;;;;;;5014592;28;20113;-85
2021/08/27 05:38:44;;;;;;;50.15;36.47;;;21.90;78.60;;;;;;5015591;28;20109;-85
2021/08/27 05:41:10;;;;;;;48.33;39.08;;;22.00;78.10;;;;;;5015437;28;20034;-86
2021/08/27 05:43:36;;;;;;;45.35;39.03;;;22.00;78.50;;;;;;5013840;28;20426;-85
2021/08/27 05:46:02;;;;;;;49.85;41.08;;;21.80;77.00;;;;;;5016076;28;20037;-86
2021/08/27 05:48:28;;;;;;;57.75;44.65;;;21.50;77.80;;;;;;5016039;28;20427;-84
2021/08/27 05:50:54;;;;;;;52.75;42.95;;;21.20;78.90;;;;;;5011055;28;20026;-85
2021/08/27 05:53:20;;;;;;;52.33;44.38;;;20.90;79.70;;;;;;5019700;28;20014;-85
2021/08/27 05:55:46;;;;;;;57.90;46.88;;;20.70;80.30;;;;;;5017484;28;20511;-85
2021/08/27 05:58:12;;;;;;;61.45;48.58;;;20.60;80.80;;;;;;5014164;28;20018;-85
2021/08/27 06:00:37;;;;;;;58.03;49.50;;;20.70;80.90;;;;;;5014841;28;20045;-86
2021/08/27 06:03:03;;;;;;;61.60;50.83;;;20.70;80.50;;;;;;5015082;28;20018;-84
2021/08/27 06:05:29;;;;;;;57.65;46.90;;;20.80;80.60;;;;;;5014812;28;20479;-86
2021/08/27 06:07:55;;;;;;;62.63;50.78;;;21.00;80.10;;;;;;5015018;28;20049;-85
2021/08/27 06:10:21;;;;;;;60.55;49.53;;;21.10;78.80;;;;;;5017794;28;20022;-85
2021/08/27 06:12:47;;;;;;;62.65;52.47;;;21.10;78.60;;;;;;5015835;28;20025;-84
2021/08/27 06:15:15;;;;;;;61.53;51.53;;;20.90;78.80;;;;;;5015429;28;20022;-84
2021/08/27 06:17:41;;;;;;;62.78;51.13;;;21.00;78.30;;;;;;5015071;28;20109;-85
2021/08/27 06:20:09;;;;;;;61.83;51.33;;;20.70;79.20;;;;;;5012778;28;20026;-84
2021/08/27 06:22:35;;;;;;;59.55;50.03;;;20.50;80.30;;;;;;5014893;28;20317;-84
2021/08/27 06:25:01;;;;;;;62.22;50.85;;;21.00;79.90;;;;;;5014461;28;20029;-85
2021/08/27 06:27:27;;;;;;;60.47;48.70;;;21.30;77.80;;;;;;5014788;28;20026;-86
2021/08/27 06:29:53;;;;;;;59.30;48.20;;;21.90;76.20;;;;;;5013473;28;20286;-85
2021/08/27 06:32:20;;;;;;;63.25;48.10;;;22.50;74.70;;;;;;5014660;28;20026;-84
2021/08/27 06:34:46;;;;;;;66.60;50.87;;;22.30;73.10;;;;;;5016131;28;20037;-84
2021/08/27 06:37:12;;;;;;;58.00;46.30;;;22.30;73.10;;;;;;5015391;28;20100;-84
2021/08/27 06:39:38;;;;;;;59.88;50.03;;;22.10;72.70;;;;;;5012582;28;20116;-82
2021/08/27 06:42:05;;;;;;;61.65;49.75;;;21.50;74.90;;;;;;5013984;28;20042;-85
2021/08/27 06:44:30;;;;;;;59.47;49.78;;;21.10;75.90;;;;;;5014409;28;20026;-86
2021/08/27 06:46:56;;;;;;;63.53;50.95;;;20.70;77.40;;;;;;5008201;28;20037;-85
2021/08/27 06:49:23;;;;;;;62.35;50.80;;;20.60;78.60;;;;;;5002150;28;20025;-80
2021/08/27 06:51:49;;;;;;;68.47;52.77;;;20.50;78.90;;;;;;5013447;28;20032;-84
2021/08/27 06:54:15;;;;;;;63.55;50.42;;;20.60;79.70;;;;;;5013520;28;20057;-85
2021/08/27 06:56:41;;;;;;;65.88;51.33;;;20.70;78.20;;;;;;5011863;28;20049;-86
2021/08/27 06:59:06;;;;;;;58.15;47.92;;;20.70;78.30;;;;;;5011802;28;20018;-85
2021/08/27 07:01:32;;;;;;;67.65;50.72;;;20.60;77.70;;;;;;5013629;28;20037;-85
2021/08/27 07:03:58;;;;;;;66.28;51.65;;;20.40;78.60;;;;;;5012597;28;20117;-86
2021/08/27 07:06:24;;;;;;;64.10;50.08;;;20.40;79.30;;;;;;5013913;28;20026;-84
2021/08/27 07:08:51;;;;;;;55.72;47.47;;;20.60;78.90;;;;;;5012286;28;20053;-87
2021/08/27 07:11:17;;;;;;;56.70;45.17;;;20.90;77.70;;;;;;5013542;28;20018;-85
2021/08/27 07:13:44;;;;;;;57.08;46.95;;;21.10;75.30;;;;;;5013487;28;20018;-85
2021/08/27 07:16:10;;;;;;;58.80;45.03;;;21.10;75.50;;;;;;5012273;28;20026;-85
2021/08/27 07:18:36;;;;;;;63.50;47.28;;;21.00;75.50;;;;;;4999805;28;20380;-87
2021/08/27 07:21:02;;;;;;;68.10;48.58;;;21.00;75.60;;;;;;5012359;28;20034;-86
2021/08/27 07:23:28;;;;;;;59.90;45.88;;;21.10;75.60;;;;;;5013796;28;20018;-85
2021/08/27 07:25:54;;;;;;;61.75;45.67;;;21.70;74.80;;;;;;5012282;28;20026;-84
2021/08/27 07:28:20;;;;;;;58.15;45.28;;;22.70;72.70;;;;;;5013195;28;20152;-86
2021/08/27 07:30:45;;;;;;;59.42;47.25;;;23.90;68.70;;;;;;5013237;28;20034;-84
2021/08/27 07:33:11;;;;;;;59.83;49.28;;;24.60;66.00;;;;;;5012847;28;20022;-85
2021/08/27 07:35:37;;;;;;;60.10;51.67;;;25.00;64.80;;;;;;5013464;28;20018;-86
2021/08/27 07:38:03;;;;;;;57.97;49.40;;;24.80;63.90;;;;;;5013338;28;20022;-86
2021/08/27 07:40:29;;;;;;;58.65;49.70;;;24.10;65.10;;;;;;5013495;28;20398;-86
2021/08/27 07:42:55;;;;;;;57.92;48.97;;;23.80;66.60;;;;;;5014529;28;20383;-85
2021/08/27 07:45:21;;;;;;;60.40;50.58;;;23.40;67.10;;;;;;5016358;28;20026;-87
2021/08/27 07:47:47;;;;;;;61.17;48.97;;;23.00;69.00;;;;;;5013782;28;20021;-86
2021/08/27 07:50:15;;;;;;;59.92;51.70;;;22.80;69.50;;;;;;5013211;28;20476;-86
2021/08/27 07:52:41;;;;;;;57.20;49.17;;;22.60;70.00;;;;;;5011588;28;20014;-85
2021/08/27 07:55:07;;;;;;;56.85;47.80;;;22.60;70.40;;;;;;5013421;28;20099;-87
2021/08/27 07:57:38;;;;;;;60.30;48.40;;;22.80;70.20;;;;;;5015066;28;20041;-85
2021/08/27 08:00:05;;;;;;;58.63;49.22;;;22.70;69.30;;;;;;5019800;28;20038;-87
2021/08/27 08:02:31;;;;;;;58.22;48.75;;;22.60;70.50;;;;;;5018188;28;20017;-85
2021/08/27 08:04:57;;;;;;;65.68;51.00;;;22.60;70.20;;;;;;5013248;28;20056;-87
2021/08/27 08:07:22;;;;;;;55.65;48.40;;;22.60;70.50;;;;;;5013344;28;20026;-85
2021/08/27 08:09:48;;;;;;;63.80;49.00;;;22.80;70.00;;;;;;5013301;28;20387;-86
2021/08/27 08:12:14;;;;;;;55.90;46.10;;;22.80;69.90;;;;;;5013393;28;20101;-86
2021/08/27 08:14:40;;;;;;;53.30;43.70;;;23.30;68.70;;;;;;5014051;28;20018;-85
2021/08/27 08:17:06;;;;;;;54.08;45.08;;;23.60;66.70;;;;;;5015780;28;20069;-87
2021/08/27 08:19:32;;;;;;;57.15;45.28;;;23.90;65.60;;;;;;5018912;28;20018;-83
2021/08/27 08:21:58;;;;;;;58.55;46.05;;;23.90;65.40;;;;;;5026378;28;20030;-85
2021/08/27 08:24:23;;;;;;;54.03;41.08;;;24.70;63.70;;;;;;5015364;28;20026;-86
2021/08/27 08:26:49;;;;;;;55.17;43.45;;;25.30;61.50;;;;;;5013446;28;20076;-85
2021/08/27 08:29:15;;;;;;;47.47;40.38;;;25.50;60.60;;;;;;5014426;28;20472;-87
2021/08/27 08:31:41;;;;;;;44.53;39.08;;;26.30;59.30;;;;;;5013585;28;20034;-86
2021/08/27 08:34:07;;;;;;;43.80;38.88;;;26.90;57.50;;;;;;5013321;28;20128;-86
2021/08/27 08:36:33;;;;;;;40.20;35.88;;;27.70;54.90;;;;;;5014047;28;20030;-87
2021/08/27 08:38:58;;;;;;;40.45;36.05;;;28.70;53.50;;;;;;5013754;28;20084;-86
2021/08/27 08:41:24;;;;;;;46.80;36.30;;;29.50;50.90;;;;;;5013052;28;20148;-88
2021/08/27 08:43:51;;;;;;;38.53;34.45;;;30.00;48.80;;;;;;5015284;28;20046;-86
2021/08/27 08:46:17;;;;;;;38.33;34.42;;;29.70;47.90;;;;;;5012998;28;20033;-89
2021/08/27 08:48:48;;;;;;;39.17;33.40;;;29.50;48.60;;;;;;5012527;28;20030;-87
2021/08/27 08:51:15;;;;;;;37.95;32.53;;;30.40;48.40;;;;;;5013277;28;20026;-87
2021/08/27 08:53:46;;;;;;;33.80;30.20;;;30.80;45.40;;;;;;5013108;28;20033;-87
2021/08/27 08:56:12;;;;;;;34.22;30.83;;;30.20;45.20;;;;;;5013324;28;20032;-88
2021/08/27 08:58:38;;;;;;;39.90;33.30;;;29.70;46.40;;;;;;5013527;28;20133;-89
2021/08/27 09:01:16;;;;;;;36.13;32.30;;;29.40;47.40;;;;;;5013507;28;20483;-87
2021/08/27 09:03:42;;;;;;;34.17;30.58;;;29.60;47.30;;;;;;5017150;28;20042;-87
2021/08/27 09:06:08;;;;;;;34.28;30.63;;;29.70;46.40;;;;;;5017069;28;20069;-87
2021/08/27 09:08:38;;;;;;;35.37;31.57;;;30.00;46.30;;;;;;5017206;28;20482;-87
2021/08/27 09:11:24;;;;;;;40.92;30.60;;;29.80;46.30;;;;;;5018484;28;20383;-84
2021/08/27 09:14:01;;;;;;;34.60;30.73;;;29.90;46.90;;;;;;5017720;28;20022;-87
2021/08/27 09:16:28;;;;;;;;;;;30.20;46.10;;;;;;5036541;28;20069;-86
2021/08/27 09:18:54;;;;;;;34.65;30.92;;;29.90;46.40;;;;;;5025568;28;19905;-87
2021/08/27 09:21:37;;;;;;;39.30;31.85;;;29.40;46.30;;;;;;5016768;28;20038;-87
2021/08/27 09:24:15;;;;;;;34.60;30.40;;;29.30;47.80;;;;;;5017629;28;20026;-86
2021/08/27 09:26:43;;;;;;;36.10;31.70;;;28.90;47.00;;;;;;5017349;28;20064;-86
2021/08/27 09:29:10;;;;;;;34.22;29.08;;;28.50;47.70;;;;;;5017301;28;20018;-87
2021/08/27 09:31:38;;;;;;;37.53;29.03;;;28.60;48.80;;;;;;5015973;28;20038;-87
2021/08/27 09:34:05;;;;;;;34.20;30.08;;;29.40;47.40;;;;;;5019833;28;20018;-88
2021/08/27 09:36:32;;;;;;;31.55;26.35;;;30.50;46.30;;;;;;5021286;28;20022;-90
2021/08/27 09:39:09;;;;;;;33.70;26.25;;;31.10;44.70;;;;;;5034508;28;20006;-87
2021/08/27 09:41:35;;;;;;;28.70;25.50;;;31.70;44.40;;;;;;5033167;28;20061;-88
2021/08/27 09:44:01;;;;;;;28.47;25.47;;;32.40;43.20;;;;;;5018868;28;20045;-86
2021/08/27 09:46:45;;;;;;;29.98;23.73;;;32.60;42.70;;;;;;5017111;28;20037;-89
2021/08/27 09:49:31;;;;;;;27.92;23.65;;;33.30;42.30;;;;;;5015119;28;20030;-91
2021/08/27 09:52:01;;;;;;;24.48;21.85;;;33.60;41.20;;;;;;5016132;28;20026;-88
2021/08/27 09:54:33;;;;;;;23.02;20.35;;;33.10;39.70;;;;;;5017029;28;20026;-87
2021/08/27 09:57:03;;;;;;;23.90;19.75;;;32.60;40.00;;;;;;5018446;28;20104;-88
2021/08/27 09:59:43;;;;;;;23.05;19.60;;;32.10;40.30;;;;;;5021756;28;20412;-88
2021/08/27 10:02:16;;;;;;;27.65;20.70;;;32.70;40.40;;;;;;5022342;28;20053;-86
2021/08/27 10:04:49;;;;;;;26.42;19.42;;;33.40;39.30;;;;;;5025117;28;20018;-88
2021/08/27 10:07:37;;;;;;;20.13;17.17;;;33.20;38.70;;;;;;5023364;28;20041;-87
2021/08/27 10:10:06;;;;;;;27.05;18.15;;;32.00;39.10;;;;;;5020515;28;20025;-88
2021/08/27 10:12:34;;;;;;;21.08;18.38;;;31.10;40.90;;;;;;5021786;28;20132;-87
2021/08/27 10:15:01;;;;;;;24.55;17.92;;;30.60;41.20;;;;;;5021115;28;20022;-87
2021/08/27 10:17:27;;;;;;;23.08;19.23;;;30.20;42.30;;;;;;5018564;28;20045;-87
2021/08/27 10:19:54;;;;;;;24.52;18.05;;;30.80;41.70;;;;;;5019853;28;20037;-87
2021/08/27 10:22:20;;;;;;;22.75;19.23;;;30.80;41.30;;;;;;5022346;28;20030;-86
2021/08/27 10:24:47;;;;;;;25.67;19.77;;;31.20;41.20;;;;;;5019364;28;20442;-88
2021/08/27 10:27:16;;;;;;;24.73;19.60;;;30.60;41.40;;;;;;5019428;28;20092;-86
2021/08/27 10:29:48;;;;;;;22.77;18.02;;;29.10;43.40;;;;;;5016907;28;20022;-90
2021/08/27 10:32:14;;;;;;;27.00;22.20;;;27.90;45.50;;;;;;5003618;28;20030;-85
2021/08/27 10:34:44;;;;;;;23.20;19.05;;;27.10;47.40;;;;;;5016509;28;20148;-88
2021/08/27 10:37:30;;;;;;;26.52;20.70;;;26.80;48.40;;;;;;5018611;28;20120;-87
2021/08/27 10:39:56;;;;;;;25.08;18.83;;;26.30;49.00;;;;;;5020449;28;20117;-87
2021/08/27 10:42:52;;;;;;;25.02;19.45;;;25.90;50.20;;;;;;5018510;28;20572;-88
2021/08/27 10:45:41;;;;;;;28.95;19.70;;;25.50;50.60;;;;;;5004436;28;20096;-87
2021/08/27 10:48:10;;;;;;;25.45;19.98;;;25.10;51.60;;;;;;5006503;28;20034;-87
2021/08/27 10:50:36;;;;;;;23.85;19.13;;;24.90;52.60;;;;;;5017384;28;20022;-89
2021/08/27 10:53:25;;;;;;;21.35;17.75;;;24.80;53.40;;;;;;5014135;28;20121;-85
2021/08/27 10:55:52;;;;;;;27.48;20.90;;;24.60;53.40;;;;;;5010890;28;20042;-86
2021/08/27 10:58:23;;;;;;;20.92;17.08;;;24.50;54.40;;;;;;5001319;28;20027;-87
2021/08/27 11:00:53;;;;;;;21.45;17.63;;;24.50;54.40;;;;;;5014051;28;20033;-88
2021/08/27 11:03:21;;;;;;;23.45;19.02;;;24.30;55.00;;;;;;5015939;28;20018;-85
2021/08/27 11:05:48;;;;;;;24.55;18.45;;;24.30;55.70;;;;;;5015436;28;20050;-87
2021/08/27 11:08:16;;;;;;;;;;;24.30;55.70;;;;;;5016603;28;20025;-87
2021/08/27 11:11:03;;;;;;;23.80;18.25;;;24.40;55.50;;;;;;5018604;28;20348;-86
2021/08/27 11:13:35;;;;;;;22.27;17.13;;;24.30;56.10;;;;;;5024044;28;20498;-86
2021/08/27 11:16:21;;;;;;;23.25;17.30;;;24.30;55.70;;;;;;5021189;28;20029;-86
2021/08/27 11:18:56;;;;;;;18.47;16.57;;;24.10;56.10;;;;;;5019119;28;20026;-89
2021/08/27 11:21:36;;;;;;;19.08;15.50;;;24.00;57.00;;;;;;5015457;28;20037;-85
2021/08/27 11:24:22;;;;;;;24.30;17.75;;;24.00;56.50;;;;;;5014160;28;20062;-86
2021/08/27 11:27:01;;;;;;;24.25;17.05;;;24.00;56.70;;;;;;5014524;28;20034;-86
2021/08/27 11:29:41;;;;;;;26.77;17.45;;;24.10;57.00;;;;;;5014629;28;20487;-85
2021/08/27 11:32:25;;;;;;;26.98;17.52;;;24.00;57.00;;;;;;5009091;28;20022;-86
2021/08/27 11:35:06;;;;;;;25.85;17.30;;;24.20;57.40;;;;;;5008848;28;20026;-87
2021/08/27 11:37:37;;;;;;;22.52;17.73;;;24.40;56.50;;;;;;5005360;28;20017;-86
2021/08/27 11:40:13;;;;;;;21.45;16.98;;;24.30;56.00;;;;;;5023885;28;20029;-85
2021/08/27 11:42:42;;;;;;;22.90;17.15;;;24.30;56.30;;;;;;5015373;28;20147;-85
2021/08/27 11:45:14;;;;;;;27.25;16.88;;;24.30;56.40;;;;;;5014225;28;20568;-86
2021/08/27 11:47:53;;;;;;;23.58;17.75;;;24.40;56.40;;;;;;5014090;28;20109;-87
2021/08/27 11:50:24;;;;;;;27.40;17.75;;;24.30;56.90;;;;;;5013945;28;20329;-86
2021/08/27 11:52:51;;;;;;;23.58;16.60;;;24.10;57.20;;;;;;5013434;28;20026;-88
2021/08/27 11:55:18;;;;;;;23.70;17.40;;;24.00;57.80;;;;;;5013921;28;20026;-85
2021/08/27 11:57:59;;;;;;;25.20;17.73;;;23.90;57.60;;;;;;5014225;28;20026;-85
2021/08/27 12:00:35;;;;;;;21.85;17.38;;;23.80;58.00;;;;;;5014261;28;20034;-87
2021/08/27 12:03:01;;;;;;;25.77;16.50;;;23.70;58.30;;;;;;5014142;28;20037;-87
2021/08/27 12:05:28;;;;;;;21.92;17.15;;;23.70;59.00;;;;;;5015564;28;20260;-88
2021/08/27 12:07:55;;;;;;;27.13;16.45;;;23.60;58.50;;;;;;5009228;28;20022;-87
2021/08/27 12:10:22;;;;;;;19.10;16.17;;;23.50;58.90;;;;;;5025230;28;20061;-87
2021/08/27 12:12:50;;;;;;;22.08;16.30;;;23.40;60.10;;;;;;5028507;28;20022;-86
2021/08/27 12:15:25;;;;;;;24.33;16.80;;;23.40;59.50;;;;;;5025483;28;20459;-87
2021/08/27 12:18:09;;;;;;;22.88;17.23;;;23.50;59.40;;;;;;5002605;28;20086;-87
2021/08/27 12:20:38;;;;;;;20.67;16.30;;;23.40;58.90;;;;;;5001574;28;20526;-85
2021/08/27 12:23:13;;;;;;;22.98;17.65;;;23.50;59.10;;;;;;5015112;28;20030;-86
2021/08/27 12:25:42;;;;;;;24.50;16.38;;;23.50;59.40;;;;;;5014982;28;20105;-86
2021/08/27 12:28:13;;;;;;;20.30;16.23;;;23.40;58.60;;;;;;5014332;28;20022;-87
2021/08/27 12:30:50;;;;;;;23.23;15.13;;;23.40;59.40;;;;;;5014358;28;20033;-85
2021/08/27 12:33:16;;;;;;;22.75;16.63;;;23.40;59.00;;;;;;5012969;28;20049;-87
2021/08/27 12:35:42;;;;;;;18.92;15.15;;;23.50;58.80;;;;;;5015609;28;20134;-89
2021/08/27 12:38:09;;;;;;;22.58;15.15;;;23.50;58.40;;;;;;5018659;28;20813;-86